Terminal Aerodrome Forecast
Issued by NWS Missoula, MT

Home | Current Version | Previous Version | Text Only | Print | Product List | Glossary On
Versions: 1 2 3 4 5 6 7 8 9 10 11 12
000
FTUS45 KMSO 261720
TAFGPI
TAF
KGPI 261720Z 2618/2718 06005KT P6SM SKC
     FM262100 17011KT P6SM -SHRA VCTS SCT070CB BKN120
     FM262300 VRB06KT P6SM BKN100
     FM270500 20008KT P6SM -SHRA OVC080=

USA.gov is the U.S. government's official web portal to all federal, state and local government web resources and services.